RYR4791 LBSF-LGSK
Flight info
| Callsign | RYR4791 |
|---|---|
| Flight time | 0h 45m |
| Altitude | 31000 |
| Route | NAPET T214 SIN DCT MAKED UL617 IBIDI |
| Aircraft | A320/M-SDE3FGHIRWY/LB1 |
Departure
| Time | 2026-04-17 08:10 |
|---|---|
| Airport | Sofia Airport (LBSF) |
Arrival
| Time | 2026-04-17 08:56 |
|---|---|
| Airport | Skiathos Island National Airport (LGSK) |
| Time | Latitude | Longitude | Altitude | Speed | Heading |
|---|---|---|---|---|---|
| 2026-04-17 07:50 | 42.69185 | 23.41246 | 1750 ft | 0 kts | 72° |
| 2026-04-17 08:01 | 42.69182 | 23.41236 | 1750 ft | 4 kts | 72° |
| 2026-04-17 08:01 | 42.69173 | 23.41202 | 1745 ft | 4 kts | 62° |
| 2026-04-17 08:02 | 42.69159 | 23.41177 | 1742 ft | 4 kts | 2° |
| 2026-04-17 08:02 | 42.69152 | 23.41177 | 1743 ft | 0 kts | 342° |
| 2026-04-17 08:05 | 42.69160 | 23.41173 | 1750 ft | 4 kts | 342° |
| 2026-04-17 08:05 | 42.69203 | 23.41154 | 1748 ft | 9 kts | 343° |
| 2026-04-17 08:06 | 42.69273 | 23.41160 | 1750 ft | 11 kts | 12° |
| 2026-04-17 08:06 | 42.69357 | 23.41185 | 1750 ft | 13 kts | 12° |
| 2026-04-17 08:06 | 42.69446 | 23.41211 | 1744 ft | 11 kts | 13° |
| 2026-04-17 08:06 | 42.69483 | 23.41295 | 1744 ft | 12 kts | 89° |
| 2026-04-17 08:07 | 42.69476 | 23.41435 | 1750 ft | 20 kts | 94° |
| 2026-04-17 08:07 | 42.69465 | 23.41634 | 1750 ft | 22 kts | 94° |
| 2026-04-17 08:07 | 42.69452 | 23.41849 | 1748 ft | 24 kts | 95° |
| 2026-04-17 08:07 | 42.69438 | 23.42078 | 1751 ft | 25 kts | 94° |
| 2026-04-17 08:08 | 42.69424 | 23.42308 | 1751 ft | 23 kts | 94° |
| 2026-04-17 08:08 | 42.69412 | 23.42516 | 1750 ft | 20 kts | 95° |
| 2026-04-17 08:08 | 42.69403 | 23.42660 | 1749 ft | 11 kts | 94° |
| 2026-04-17 08:08 | 42.69436 | 23.42753 | 1747 ft | 13 kts | 19° |
| 2026-04-17 08:09 | 42.69510 | 23.42694 | 1751 ft | 11 kts | 302° |
| 2026-04-17 08:09 | 42.69537 | 23.42635 | 1750 ft | 12 kts | 303° |
| 2026-04-17 08:09 | 42.69587 | 23.42533 | 1745 ft | 11 kts | 304° |
| 2026-04-17 08:09 | 42.69603 | 23.42475 | 1748 ft | 0 kts | 272° |
| 2026-04-17 08:10 | 42.69604 | 23.42446 | 1750 ft | 23 kts | 272° |
| 2026-04-17 08:10 | 42.69644 | 23.41798 | 1751 ft | 111 kts | 275° |
| 2026-04-17 08:10 | 42.69729 | 23.40418 | 1765 ft | 177 kts | 276° |
| 2026-04-17 08:10 | 42.69828 | 23.38721 | 2522 ft | 184 kts | 275° |
| 2026-04-17 08:11 | 42.69936 | 23.36948 | 3467 ft | 192 kts | 276° |
| 2026-04-17 08:11 | 42.70035 | 23.35091 | 4111 ft | 201 kts | 275° |
| 2026-04-17 08:11 | 42.70117 | 23.33163 | 4670 ft | 207 kts | 276° |
| 2026-04-17 08:11 | 42.70193 | 23.31176 | 5263 ft | 213 kts | 275° |
| 2026-04-17 08:12 | 42.70256 | 23.29148 | 5856 ft | 218 kts | 275° |
| 2026-04-17 08:12 | 42.70330 | 23.27067 | 6451 ft | 222 kts | 275° |
| 2026-04-17 08:12 | 42.70421 | 23.24949 | 7017 ft | 226 kts | 275° |
| 2026-04-17 08:12 | 42.70435 | 23.22743 | 7371 ft | 245 kts | 260° |
| 2026-04-17 08:13 | 42.69695 | 23.20586 | 7689 ft | 265 kts | 226° |
| 2026-04-17 08:13 | 42.68286 | 23.18824 | 8113 ft | 286 kts | 219° |
| 2026-04-17 08:13 | 42.66759 | 23.17017 | 8849 ft | 295 kts | 219° |
| 2026-04-17 08:14 | 42.63602 | 23.13296 | 10258 ft | 313 kts | 220° |
| 2026-04-17 08:14 | 42.61892 | 23.11278 | 10496 ft | 337 kts | 220° |
| 2026-04-17 08:14 | 42.60079 | 23.09138 | 10925 ft | 351 kts | 220° |
| 2026-04-17 08:14 | 42.58227 | 23.06951 | 11602 ft | 356 kts | 220° |
| 2026-04-17 08:15 | 42.56356 | 23.04734 | 12343 ft | 358 kts | 220° |
| 2026-04-17 08:15 | 42.54475 | 23.02501 | 13079 ft | 361 kts | 220° |
| 2026-04-17 08:15 | 42.52578 | 23.00249 | 13811 ft | 364 kts | 220° |
| 2026-04-17 08:15 | 42.50666 | 22.97984 | 14467 ft | 366 kts | 220° |
| 2026-04-17 08:16 | 42.48736 | 22.95701 | 15079 ft | 370 kts | 220° |
| 2026-04-17 08:16 | 42.46786 | 22.93399 | 15667 ft | 373 kts | 220° |
| 2026-04-17 08:16 | 42.44820 | 22.91082 | 16270 ft | 377 kts | 221° |
| 2026-04-17 08:16 | 42.42832 | 22.88743 | 16874 ft | 380 kts | 221° |
| 2026-04-17 08:17 | 42.40829 | 22.86384 | 17477 ft | 384 kts | 221° |
| 2026-04-17 08:17 | 42.38807 | 22.84003 | 18095 ft | 387 kts | 221° |
| 2026-04-17 08:17 | 42.36766 | 22.81604 | 18669 ft | 391 kts | 221° |
| 2026-04-17 08:17 | 42.34705 | 22.79189 | 19258 ft | 393 kts | 221° |
| 2026-04-17 08:18 | 42.32633 | 22.76758 | 19861 ft | 395 kts | 221° |
| 2026-04-17 08:18 | 42.30552 | 22.74316 | 20467 ft | 398 kts | 221° |
| 2026-04-17 08:18 | 42.28454 | 22.71860 | 21060 ft | 400 kts | 221° |
| 2026-04-17 08:18 | 42.26345 | 22.69395 | 21631 ft | 402 kts | 221° |
| 2026-04-17 08:19 | 42.24250 | 22.66946 | 22182 ft | 404 kts | 221° |
| 2026-04-17 08:19 | 42.22123 | 22.64457 | 22742 ft | 406 kts | 221° |
| 2026-04-17 08:19 | 42.19984 | 22.61958 | 23297 ft | 408 kts | 221° |
| 2026-04-17 08:19 | 42.17849 | 22.59469 | 23789 ft | 410 kts | 221° |
| 2026-04-17 08:20 | 42.15663 | 22.56926 | 24244 ft | 412 kts | 221° |
| 2026-04-17 08:20 | 42.13490 | 22.54400 | 24697 ft | 413 kts | 221° |
| 2026-04-17 08:20 | 42.11306 | 22.51863 | 25138 ft | 415 kts | 222° |
| 2026-04-17 08:20 | 42.09119 | 22.49324 | 25572 ft | 416 kts | 222° |
| 2026-04-17 08:21 | 42.06921 | 22.46779 | 25996 ft | 417 kts | 221° |
| 2026-04-17 08:21 | 42.04718 | 22.44230 | 26429 ft | 419 kts | 221° |
| 2026-04-17 08:21 | 42.02483 | 22.41714 | 26830 ft | 421 kts | 218° |
| 2026-04-17 08:21 | 41.99971 | 22.39666 | 27227 ft | 424 kts | 206° |
| 2026-04-17 08:22 | 41.97186 | 22.38294 | 27621 ft | 428 kts | 195° |
| 2026-04-17 08:22 | 41.94233 | 22.37656 | 27998 ft | 432 kts | 184° |
| 2026-04-17 08:22 | 41.91253 | 22.37778 | 28346 ft | 436 kts | 174° |
| 2026-04-17 08:22 | 41.88242 | 22.38317 | 28718 ft | 438 kts | 174° |
| 2026-04-17 08:23 | 41.85207 | 22.38864 | 29078 ft | 441 kts | 174° |
| 2026-04-17 08:23 | 41.82160 | 22.39410 | 29428 ft | 443 kts | 174° |
| 2026-04-17 08:23 | 41.79095 | 22.39956 | 29785 ft | 445 kts | 174° |
| 2026-04-17 08:23 | 41.76017 | 22.40502 | 30129 ft | 447 kts | 174° |
| 2026-04-17 08:24 | 41.72932 | 22.41050 | 30491 ft | 447 kts | 174° |
| 2026-04-17 08:24 | 41.69846 | 22.41599 | 30902 ft | 447 kts | 174° |
| 2026-04-17 08:24 | 41.66763 | 22.42149 | 31027 ft | 444 kts | 174° |
| 2026-04-17 08:25 | 41.60721 | 22.43226 | 31055 ft | 435 kts | 174° |
| 2026-04-17 08:25 | 41.54742 | 22.44339 | 31062 ft | 434 kts | 169° |
| 2026-04-17 08:26 | 41.49030 | 22.47013 | 31056 ft | 436 kts | 160° |
| 2026-04-17 08:26 | 41.43402 | 22.49910 | 31053 ft | 436 kts | 160° |
| 2026-04-17 08:27 | 41.37736 | 22.52833 | 31048 ft | 436 kts | 160° |
| 2026-04-17 08:27 | 41.32074 | 22.55740 | 31046 ft | 436 kts | 160° |
| 2026-04-17 08:28 | 41.26408 | 22.58635 | 31045 ft | 436 kts | 160° |
| 2026-04-17 08:28 | 41.20746 | 22.61517 | 31042 ft | 436 kts | 160° |
| 2026-04-17 08:29 | 41.15082 | 22.64403 | 31042 ft | 436 kts | 160° |
| 2026-04-17 08:29 | 41.09423 | 22.67292 | 31044 ft | 436 kts | 160° |
| 2026-04-17 08:30 | 41.03757 | 22.70170 | 31043 ft | 436 kts | 160° |
| 2026-04-17 08:30 | 40.98098 | 22.73031 | 31043 ft | 435 kts | 160° |
| 2026-04-17 08:31 | 40.92435 | 22.75895 | 31044 ft | 435 kts | 160° |
| 2026-04-17 08:31 | 40.86778 | 22.78748 | 31044 ft | 435 kts | 160° |
| 2026-04-17 08:32 | 40.81124 | 22.81593 | 31034 ft | 435 kts | 160° |
| 2026-04-17 08:32 | 40.75502 | 22.84419 | 31036 ft | 435 kts | 160° |
| 2026-04-17 08:33 | 40.69853 | 22.87261 | 31031 ft | 434 kts | 160° |
| 2026-04-17 08:33 | 40.64196 | 22.90098 | 31029 ft | 435 kts | 160° |
| 2026-04-17 08:34 | 40.58546 | 22.92923 | 31025 ft | 435 kts | 160° |
| 2026-04-17 08:34 | 40.52890 | 22.95748 | 31031 ft | 435 kts | 160° |
| 2026-04-17 08:35 | 40.47227 | 22.98569 | 30874 ft | 435 kts | 160° |
| 2026-04-17 08:35 | 40.44401 | 22.99978 | 30513 ft | 431 kts | 160° |
| 2026-04-17 08:35 | 40.41605 | 23.01369 | 29937 ft | 429 kts | 160° |
| 2026-04-17 08:35 | 40.38823 | 23.02749 | 29376 ft | 425 kts | 160° |
| 2026-04-17 08:36 | 40.36069 | 23.04113 | 28842 ft | 421 kts | 160° |
| 2026-04-17 08:36 | 40.33340 | 23.05467 | 28315 ft | 418 kts | 160° |
| 2026-04-17 08:36 | 40.30632 | 23.06812 | 27790 ft | 415 kts | 160° |
| 2026-04-17 08:36 | 40.27945 | 23.08143 | 27274 ft | 412 kts | 160° |
| 2026-04-17 08:37 | 40.25272 | 23.09461 | 26762 ft | 409 kts | 160° |
| 2026-04-17 08:37 | 40.22612 | 23.10773 | 26254 ft | 407 kts | 160° |
| 2026-04-17 08:37 | 40.19970 | 23.12077 | 25762 ft | 405 kts | 159° |
| 2026-04-17 08:37 | 40.17340 | 23.13375 | 25269 ft | 404 kts | 160° |
| 2026-04-17 08:38 | 40.14714 | 23.14671 | 24805 ft | 402 kts | 159° |
| 2026-04-17 08:38 | 40.12102 | 23.15959 | 24335 ft | 401 kts | 159° |
| 2026-04-17 08:38 | 40.09500 | 23.17244 | 23883 ft | 399 kts | 159° |
| 2026-04-17 08:38 | 40.06903 | 23.18526 | 23395 ft | 399 kts | 159° |
| 2026-04-17 08:39 | 40.04311 | 23.19801 | 22916 ft | 396 kts | 159° |
| 2026-04-17 08:39 | 40.01741 | 23.21062 | 22463 ft | 394 kts | 160° |
| 2026-04-17 08:39 | 39.99184 | 23.22312 | 22002 ft | 391 kts | 160° |
| 2026-04-17 08:39 | 39.96646 | 23.23554 | 21535 ft | 389 kts | 160° |
| 2026-04-17 08:40 | 39.94120 | 23.24790 | 21059 ft | 386 kts | 160° |
| 2026-04-17 08:40 | 39.91644 | 23.26003 | 20587 ft | 384 kts | 160° |
| 2026-04-17 08:40 | 39.89112 | 23.27244 | 20085 ft | 383 kts | 160° |
| 2026-04-17 08:40 | 39.86657 | 23.28442 | 19602 ft | 381 kts | 160° |
| 2026-04-17 08:41 | 39.84183 | 23.29646 | 19095 ft | 379 kts | 160° |
| 2026-04-17 08:41 | 39.81711 | 23.30848 | 18600 ft | 378 kts | 160° |
| 2026-04-17 08:41 | 39.79253 | 23.32045 | 18064 ft | 376 kts | 160° |
| 2026-04-17 08:41 | 39.76815 | 23.33233 | 17539 ft | 373 kts | 160° |
| 2026-04-17 08:42 | 39.74385 | 23.34417 | 17041 ft | 370 kts | 160° |
| 2026-04-17 08:42 | 39.71982 | 23.35587 | 16545 ft | 367 kts | 159° |
| 2026-04-17 08:42 | 39.69604 | 23.36746 | 16056 ft | 364 kts | 159° |
| 2026-04-17 08:42 | 39.67236 | 23.37895 | 15551 ft | 362 kts | 159° |
| 2026-04-17 08:43 | 39.64883 | 23.39034 | 15060 ft | 360 kts | 159° |
| 2026-04-17 08:43 | 39.62544 | 23.40168 | 14570 ft | 358 kts | 159° |
| 2026-04-17 08:43 | 39.60219 | 23.41298 | 14078 ft | 356 kts | 159° |
| 2026-04-17 08:43 | 39.57903 | 23.42423 | 13561 ft | 354 kts | 159° |
| 2026-04-17 08:44 | 39.55603 | 23.43537 | 13060 ft | 352 kts | 159° |
| 2026-04-17 08:44 | 39.53319 | 23.44637 | 12582 ft | 348 kts | 159° |
| 2026-04-17 08:44 | 39.51054 | 23.45729 | 12096 ft | 346 kts | 158° |
| 2026-04-17 08:44 | 39.48839 | 23.46797 | 11627 ft | 343 kts | 158° |
| 2026-04-17 08:45 | 39.46583 | 23.47886 | 11152 ft | 341 kts | 158° |
| 2026-04-17 08:45 | 39.44394 | 23.48942 | 10688 ft | 339 kts | 158° |
| 2026-04-17 08:45 | 39.42192 | 23.50003 | 10313 ft | 335 kts | 157° |
| 2026-04-17 08:45 | 39.40050 | 23.51034 | 10189 ft | 322 kts | 157° |
| 2026-04-17 08:46 | 39.37988 | 23.52025 | 10070 ft | 311 kts | 157° |
| 2026-04-17 08:46 | 39.35992 | 23.52987 | 9917 ft | 302 kts | 157° |
| 2026-04-17 08:46 | 39.34033 | 23.53931 | 9516 ft | 302 kts | 156° |
| 2026-04-17 08:46 | 39.32078 | 23.54869 | 9149 ft | 299 kts | 156° |
| 2026-04-17 08:47 | 39.30132 | 23.55801 | 8688 ft | 297 kts | 156° |
| 2026-04-17 08:47 | 39.28201 | 23.56724 | 8265 ft | 295 kts | 156° |
| 2026-04-17 08:47 | 39.26287 | 23.57638 | 7863 ft | 292 kts | 156° |
| 2026-04-17 08:47 | 39.24383 | 23.58552 | 7477 ft | 291 kts | 156° |
| 2026-04-17 08:48 | 39.22482 | 23.59467 | 7085 ft | 291 kts | 156° |
| 2026-04-17 08:48 | 39.20587 | 23.60375 | 6692 ft | 290 kts | 157° |
| 2026-04-17 08:48 | 39.18611 | 23.60906 | 6293 ft | 293 kts | 176° |
| 2026-04-17 08:48 | 39.16609 | 23.60546 | 5883 ft | 291 kts | 198° |
| 2026-04-17 08:49 | 39.14781 | 23.59454 | 5479 ft | 288 kts | 207° |
| 2026-04-17 08:49 | 39.13014 | 23.58288 | 5079 ft | 281 kts | 207° |
| 2026-04-17 08:49 | 39.11293 | 23.57161 | 4689 ft | 274 kts | 207° |
| 2026-04-17 08:49 | 39.09623 | 23.56074 | 4342 ft | 265 kts | 207° |
| 2026-04-17 08:50 | 39.08008 | 23.55024 | 3992 ft | 256 kts | 207° |
| 2026-04-17 08:50 | 39.06442 | 23.54003 | 3656 ft | 248 kts | 207° |
| 2026-04-17 08:50 | 39.04922 | 23.53012 | 3322 ft | 242 kts | 207° |
| 2026-04-17 08:50 | 39.03442 | 23.52045 | 2996 ft | 235 kts | 208° |
| 2026-04-17 08:51 | 39.02281 | 23.50719 | 2816 ft | 214 kts | 246° |
| 2026-04-17 08:51 | 39.02001 | 23.48956 | 2636 ft | 194 kts | 284° |
| 2026-04-17 08:51 | 39.02509 | 23.47472 | 2468 ft | 174 kts | 317° |
| 2026-04-17 08:51 | 39.03443 | 23.46640 | 2332 ft | 157 kts | 345° |
| 2026-04-17 08:52 | 39.04457 | 23.46489 | 2195 ft | 140 kts | 9° |
| 2026-04-17 08:52 | 39.05391 | 23.46748 | 2106 ft | 136 kts | 14° |
| 2026-04-17 08:52 | 39.06312 | 23.47002 | 1996 ft | 135 kts | 12° |
| 2026-04-17 08:52 | 39.07235 | 23.47191 | 1879 ft | 134 kts | 9° |
| 2026-04-17 08:53 | 39.08160 | 23.47344 | 1755 ft | 133 kts | 8° |
| 2026-04-17 08:53 | 39.09085 | 23.47492 | 1629 ft | 134 kts | 8° |
| 2026-04-17 08:53 | 39.10011 | 23.47631 | 1545 ft | 133 kts | 7° |
| 2026-04-17 08:53 | 39.10625 | 23.47727 | 1472 ft | 135 kts | 8° |
| 2026-04-17 08:54 | 39.11548 | 23.47876 | 1327 ft | 133 kts | 8° |
| 2026-04-17 08:54 | 39.12459 | 23.48077 | 1096 ft | 133 kts | 17° |
| 2026-04-17 08:54 | 39.13345 | 23.48432 | 911 ft | 134 kts | 18° |
| 2026-04-17 08:54 | 39.14237 | 23.48799 | 700 ft | 134 kts | 19° |
| 2026-04-17 08:55 | 39.15115 | 23.49201 | 504 ft | 133 kts | 19° |
| 2026-04-17 08:55 | 39.15996 | 23.49610 | 310 ft | 134 kts | 21° |
| 2026-04-17 08:55 | 39.16882 | 23.49996 | 71 ft | 134 kts | 20° |
| 2026-04-17 08:55 | 39.17698 | 23.50365 | 41 ft | 100 kts | 20° |
| 2026-04-17 08:56 | 39.18067 | 23.50530 | 49 ft | 43 kts | 18° |
| 2026-04-17 08:56 | 39.18288 | 23.50625 | 55 ft | 17 kts | 19° |
| 2026-04-17 08:56 | 39.18400 | 23.50677 | 60 ft | 17 kts | 20° |
| 2026-04-17 08:56 | 39.18494 | 23.50695 | 55 ft | 11 kts | 345° |
| 2026-04-17 08:57 | 39.18522 | 23.50731 | 59 ft | 7 kts | 110° |
| 2026-04-17 08:57 | 39.18480 | 23.50727 | 54 ft | 8 kts | 225° |
| 2026-04-17 08:57 | 39.18425 | 23.50686 | 61 ft | 12 kts | 198° |
| 2026-04-17 08:57 | 39.18305 | 23.50632 | 55 ft | 21 kts | 199° |
| 2026-04-17 08:58 | 39.18151 | 23.50563 | 48 ft | 26 kts | 199° |
| 2026-04-17 08:58 | 39.17999 | 23.50495 | 46 ft | 17 kts | 200° |
| 2026-04-17 08:58 | 39.17934 | 23.50421 | 42 ft | 13 kts | 246° |
| 2026-04-17 08:58 | 39.17900 | 23.50328 | 40 ft | 12 kts | 238° |
| 2026-04-17 08:59 | 39.17898 | 23.50278 | 39 ft | 4 kts | 290° |
| 2026-04-17 08:59 | 39.17909 | 23.50240 | 39 ft | 0 kts | 289° |
| 2026-04-17 08:59 | 39.17910 | 23.50237 | 39 ft | 0 kts | 289° |